Terminal Aerodrome Forecast
Issued by NWS Wilmington, NC

Home | Current Version | Previous Version | Text Only | Print | Product List | Glossary On
Versions: 1 2 3 4 5 6 7 8 9 10 11 12 13 14
000
FTUS42 KILM 221700
TAFLBT
TAF
KLBT 221721Z 2218/2318 03008KT P6SM VCSH SCT050 BKN100
     FM230400 04007KT P6SM BKN040
     FM231500 05008KT P6SM SCT050 BKN120=

USA.gov is the U.S. government's official web portal to all federal, state and local government web resources and services.